WAT5229 ZSPD-EDDK
Flight info
| Callsign | WAT5229 |
|---|---|
| Flight time | N/A |
| Altitude | 27600 |
| Route | PIK94D PIKAS G330 UNTAN G345 OLRIS R343 MADUK W51 LEGIV W164 ADGOL W50 IDUKI/K0937S0920 W50 XSH W80 IDGAG A581 QNX W136 XISLI A581 SGM A599 LINSO/N0511F300 A599 CHILA/N0507F320 A599 CTG B465 CEA A791 BPL L639 LAXOM/N0499F340 L639 RASKI L301 RAGMA N571 ALPOB L768 VATIM L550 RASMO/N0485F360 L550 NOVPA N697 MENLI L677 CVO L617 TANSA UL613 KOR/N0474F380 UL613 YNN UL611 TUMBO DCT NERRA DCT VEKEN DCT ERKIR/N0488F300 DCT VEKIR DCT UMDAS T844 ASKIK T840 GULKO GULKO1B |
| Aircraft | B77L/H-SDE1E2E3FGHIJ2J3J4J5M1RWXY/LB1D1 |
Departure
| Time | N/A |
|---|---|
| Airport | Shanghai Pudong International Airport (ZSPD) |
Arrival
| Time | 2026-05-07 12:11 |
|---|---|
| Airport | Cologne Bonn Airport (EDDK) |
| Time | Latitude | Longitude | Altitude | Speed | Heading |
|---|---|---|---|---|---|
| 2026-05-07 10:22 | 28.96315 | 43.39381 | 31986 ft | 439 kts | 268° |
| 2026-05-07 10:23 | 28.97282 | 43.25541 | 32063 ft | 437 kts | 268° |
| 2026-05-07 10:23 | 28.98240 | 43.11605 | 32205 ft | 444 kts | 268° |
| 2026-05-07 10:23 | 28.99196 | 42.97539 | 32076 ft | 454 kts | 268° |
| 2026-05-07 10:24 | 29.01081 | 42.69285 | 31991 ft | 437 kts | 268° |
| 2026-05-07 10:24 | 29.02867 | 42.41401 | 32095 ft | 448 kts | 268° |
| 2026-05-07 10:25 | 29.04649 | 42.12873 | 32009 ft | 444 kts | 268° |
| 2026-05-07 10:25 | 29.06330 | 41.85073 | 32059 ft | 440 kts | 268° |
| 2026-05-07 10:26 | 29.08010 | 41.56665 | 32055 ft | 449 kts | 268° |
| 2026-05-07 10:26 | 29.09597 | 41.28623 | 32005 ft | 435 kts | 267° |
| 2026-05-07 10:27 | 29.11103 | 41.00513 | 31979 ft | 452 kts | 267° |
| 2026-05-07 10:27 | 29.12575 | 40.72262 | 31874 ft | 437 kts | 266° |
| 2026-05-07 10:27 | 29.13259 | 40.58446 | 32078 ft | 436 kts | 265° |
| 2026-05-07 10:28 | 29.12879 | 40.44524 | 32245 ft | 442 kts | 262° |
| 2026-05-07 10:28 | 29.12393 | 40.30344 | 32062 ft | 449 kts | 262° |
| 2026-05-07 10:28 | 29.11915 | 40.16193 | 31931 ft | 440 kts | 262° |
| 2026-05-07 10:28 | 29.11427 | 40.02435 | 32107 ft | 431 kts | 262° |
| 2026-05-07 10:29 | 29.10941 | 39.88629 | 32205 ft | 439 kts | 263° |
| 2026-05-07 10:29 | 29.11031 | 39.74408 | 32072 ft | 450 kts | 265° |
| 2026-05-07 10:29 | 29.11112 | 39.60167 | 32033 ft | 444 kts | 264° |
| 2026-05-07 10:30 | 29.11138 | 39.18295 | 32091 ft | 446 kts | 264° |
| 2026-05-07 10:30 | 29.11092 | 38.89993 | 31936 ft | 443 kts | 264° |
| 2026-05-07 10:31 | 29.11032 | 38.75877 | 32048 ft | 436 kts | 264° |
| 2026-05-07 10:31 | 29.10958 | 38.62122 | 32184 ft | 442 kts | 264° |
| 2026-05-07 10:31 | 29.10766 | 38.33522 | 31953 ft | 451 kts | 264° |
| 2026-05-07 10:32 | 29.10638 | 38.19393 | 31936 ft | 439 kts | 264° |
| 2026-05-07 10:32 | 29.10493 | 38.05495 | 32116 ft | 439 kts | 264° |
| 2026-05-07 10:32 | 29.10331 | 37.91377 | 32185 ft | 451 kts | 264° |
| 2026-05-07 10:32 | 29.10158 | 37.76979 | 32160 ft | 452 kts | 264° |
| 2026-05-07 10:33 | 29.09970 | 37.62666 | 31984 ft | 445 kts | 265° |
| 2026-05-07 10:33 | 29.09773 | 37.48601 | 32020 ft | 441 kts | 265° |
| 2026-05-07 10:33 | 29.09579 | 37.20005 | 32059 ft | 457 kts | 266° |
| 2026-05-07 10:34 | 29.09314 | 36.91185 | 32011 ft | 447 kts | 266° |
| 2026-05-07 10:34 | 29.08984 | 36.62339 | 32028 ft | 464 kts | 267° |
| 2026-05-07 10:35 | 29.08408 | 36.33079 | 31993 ft | 453 kts | 266° |
| 2026-05-07 10:35 | 29.07565 | 36.04077 | 32104 ft | 465 kts | 267° |
| 2026-05-07 10:36 | 29.07115 | 35.89157 | 31970 ft | 470 kts | 266° |
| 2026-05-07 10:36 | 29.06655 | 35.74414 | 31938 ft | 458 kts | 267° |
| 2026-05-07 10:36 | 29.05693 | 35.45239 | 32086 ft | 467 kts | 267° |
| 2026-05-07 10:37 | 29.04640 | 35.15225 | 31932 ft | 470 kts | 267° |
| 2026-05-07 10:37 | 29.03555 | 34.86114 | 32017 ft | 466 kts | 267° |
| 2026-05-07 10:38 | 29.06186 | 34.56627 | 32039 ft | 480 kts | 288° |
| 2026-05-07 10:38 | 29.14301 | 34.29262 | 33717 ft | 493 kts | 288° |
| 2026-05-07 10:38 | 29.22839 | 33.99775 | 34043 ft | 493 kts | 288° |
| 2026-05-07 10:39 | 29.31319 | 33.70308 | 34004 ft | 480 kts | 288° |
| 2026-05-07 10:39 | 29.39498 | 33.41622 | 34003 ft | 467 kts | 288° |
| 2026-05-07 10:39 | 29.55301 | 32.85422 | 34042 ft | 462 kts | 287° |
| 2026-05-07 10:40 | 29.69070 | 32.28250 | 34111 ft | 466 kts | 284° |
| 2026-05-07 10:40 | 29.87016 | 31.73124 | 34135 ft | 467 kts | 310° |
| 2026-05-07 10:41 | 30.19779 | 31.27050 | 34130 ft | 464 kts | 317° |
| 2026-05-07 10:41 | 30.57573 | 30.86655 | 34120 ft | 460 kts | 316° |
| 2026-05-07 10:42 | 30.94736 | 30.46115 | 34104 ft | 456 kts | 316° |
| 2026-05-07 10:42 | 31.11583 | 30.24362 | 34001 ft | 460 kts | 291° |
| 2026-05-07 10:42 | 31.18726 | 29.96077 | 34197 ft | 450 kts | 296° |
| 2026-05-07 10:43 | 31.32888 | 29.72518 | 34261 ft | 443 kts | 309° |
| 2026-05-07 10:43 | 31.47431 | 29.49029 | 34195 ft | 444 kts | 309° |
| 2026-05-07 10:43 | 31.76787 | 29.03180 | 34090 ft | 427 kts | 322° |
| 2026-05-07 10:44 | 31.95251 | 28.85904 | 34227 ft | 423 kts | 323° |
| 2026-05-07 10:44 | 32.13400 | 28.68272 | 34182 ft | 424 kts | 323° |
| 2026-05-07 10:44 | 32.49566 | 28.32941 | 34176 ft | 419 kts | 322° |
| 2026-05-07 10:45 | 32.85273 | 27.97676 | 34172 ft | 415 kts | 322° |
| 2026-05-07 10:45 | 33.20669 | 27.62332 | 34181 ft | 415 kts | 321° |
| 2026-05-07 10:46 | 33.56024 | 27.26647 | 34183 ft | 415 kts | 321° |
| 2026-05-07 10:46 | 33.90958 | 26.91005 | 34162 ft | 414 kts | 320° |
| 2026-05-07 10:47 | 34.21107 | 26.62135 | 34166 ft | 413 kts | 322° |
| 2026-05-07 10:48 | 34.44803 | 26.39940 | 34180 ft | 414 kts | 321° |
| 2026-05-07 10:48 | 34.80814 | 26.05958 | 34132 ft | 415 kts | 320° |
| 2026-05-07 10:49 | 35.17237 | 25.71142 | 34117 ft | 417 kts | 320° |
| 2026-05-07 10:49 | 35.53657 | 25.35936 | 34113 ft | 417 kts | 320° |
| 2026-05-07 10:50 | 35.89859 | 25.00537 | 34157 ft | 414 kts | 319° |
| 2026-05-07 10:50 | 36.25841 | 24.64935 | 34163 ft | 416 kts | 319° |
| 2026-05-07 10:51 | 36.59257 | 24.31493 | 34165 ft | 421 kts | 318° |
| 2026-05-07 10:51 | 36.68375 | 24.22272 | 34150 ft | 422 kts | 318° |
| 2026-05-07 10:52 | 36.77508 | 24.13023 | 34145 ft | 423 kts | 318° |
| 2026-05-07 10:52 | 36.86641 | 24.03742 | 34151 ft | 424 kts | 317° |
| 2026-05-07 10:53 | 36.95807 | 23.94409 | 34140 ft | 426 kts | 317° |
| 2026-05-07 10:53 | 37.04992 | 23.85035 | 34137 ft | 426 kts | 317° |
| 2026-05-07 10:54 | 37.14188 | 23.75615 | 34131 ft | 428 kts | 317° |
| 2026-05-07 10:54 | 37.23418 | 23.66130 | 34136 ft | 430 kts | 316° |
| 2026-05-07 10:55 | 37.32680 | 23.56580 | 34130 ft | 431 kts | 316° |
| 2026-05-07 10:55 | 37.41950 | 23.46990 | 34136 ft | 432 kts | 317° |
| 2026-05-07 10:56 | 37.51238 | 23.37350 | 34079 ft | 434 kts | 316° |
| 2026-05-07 10:56 | 37.60491 | 23.27714 | 34126 ft | 435 kts | 316° |
| 2026-05-07 10:57 | 37.69817 | 23.17969 | 34116 ft | 435 kts | 316° |
| 2026-05-07 10:57 | 37.79121 | 23.08213 | 34097 ft | 434 kts | 315° |
| 2026-05-07 10:58 | 37.88431 | 22.98422 | 34105 ft | 437 kts | 315° |
| 2026-05-07 10:58 | 37.97633 | 22.88371 | 34113 ft | 436 kts | 313° |
| 2026-05-07 10:59 | 38.06503 | 22.77970 | 34110 ft | 433 kts | 313° |
| 2026-05-07 10:59 | 38.15393 | 22.67643 | 34120 ft | 433 kts | 313° |
| 2026-05-07 11:00 | 38.24278 | 22.57291 | 34145 ft | 433 kts | 313° |
| 2026-05-07 11:00 | 38.33160 | 22.46903 | 34124 ft | 433 kts | 313° |
| 2026-05-07 11:01 | 38.42011 | 22.36517 | 34120 ft | 432 kts | 312° |
| 2026-05-07 11:01 | 38.50806 | 22.26160 | 34197 ft | 428 kts | 312° |
| 2026-05-07 11:02 | 38.59554 | 22.15817 | 34051 ft | 427 kts | 312° |
| 2026-05-07 11:02 | 38.63891 | 22.10685 | 34170 ft | 426 kts | 312° |
| 2026-05-07 11:02 | 38.68247 | 22.05513 | 34202 ft | 428 kts | 312° |
| 2026-05-07 11:03 | 38.76999 | 21.95098 | 34126 ft | 431 kts | 311° |
| 2026-05-07 11:03 | 38.85816 | 21.84566 | 34134 ft | 435 kts | 313° |
| 2026-05-07 11:04 | 38.94707 | 21.73916 | 34137 ft | 439 kts | 312° |
| 2026-05-07 11:04 | 39.03668 | 21.63135 | 34123 ft | 442 kts | 312° |
| 2026-05-07 11:05 | 39.11142 | 21.54111 | 34109 ft | 444 kts | 313° |
| 2026-05-07 11:05 | 39.21601 | 21.41447 | 34126 ft | 443 kts | 313° |
| 2026-05-07 11:06 | 39.30594 | 21.30511 | 34135 ft | 445 kts | 313° |
| 2026-05-07 11:06 | 39.38144 | 21.21297 | 34123 ft | 449 kts | 314° |
| 2026-05-07 11:07 | 39.47390 | 21.09972 | 34136 ft | 464 kts | 313° |
| 2026-05-07 11:07 | 39.56682 | 20.98545 | 34147 ft | 455 kts | 313° |
| 2026-05-07 11:08 | 39.65782 | 20.87324 | 34168 ft | 451 kts | 314° |
| 2026-05-07 11:08 | 39.70355 | 20.81776 | 34166 ft | 462 kts | 317° |
| 2026-05-07 11:08 | 39.75580 | 20.76724 | 34158 ft | 473 kts | 321° |
| 2026-05-07 11:09 | 39.86337 | 20.66672 | 34155 ft | 475 kts | 321° |
| 2026-05-07 11:09 | 39.96948 | 20.56599 | 34067 ft | 471 kts | 320° |
| 2026-05-07 11:10 | 40.07487 | 20.46551 | 34134 ft | 469 kts | 320° |
| 2026-05-07 11:10 | 40.17947 | 20.36323 | 34125 ft | 470 kts | 319° |
| 2026-05-07 11:11 | 40.28439 | 20.25998 | 34154 ft | 475 kts | 319° |
| 2026-05-07 11:11 | 40.39108 | 20.15479 | 34130 ft | 483 kts | 319° |
| 2026-05-07 11:12 | 40.49774 | 20.04929 | 34101 ft | 475 kts | 318° |
| 2026-05-07 11:12 | 40.60256 | 19.94509 | 34099 ft | 470 kts | 318° |
| 2026-05-07 11:13 | 40.70634 | 19.84156 | 34096 ft | 464 kts | 318° |
| 2026-05-07 11:13 | 40.81019 | 19.73733 | 34108 ft | 474 kts | 317° |
| 2026-05-07 11:14 | 40.91592 | 19.63096 | 34079 ft | 480 kts | 318° |
| 2026-05-07 11:14 | 41.06103 | 19.48436 | 34061 ft | 474 kts | 318° |
| 2026-05-07 11:15 | 41.47621 | 19.05954 | 34168 ft | 473 kts | 318° |
| 2026-05-07 11:15 | 41.68697 | 18.84169 | 34187 ft | 484 kts | 318° |
| 2026-05-07 11:15 | 41.89921 | 18.62012 | 34138 ft | 481 kts | 318° |
| 2026-05-07 11:16 | 42.10804 | 18.40021 | 34045 ft | 470 kts | 318° |
| 2026-05-07 11:16 | 42.31148 | 18.18416 | 34040 ft | 462 kts | 318° |
| 2026-05-07 11:16 | 42.51362 | 17.96757 | 34143 ft | 466 kts | 317° |
| 2026-05-07 11:16 | 42.71866 | 17.74604 | 34173 ft | 476 kts | 317° |
| 2026-05-07 11:17 | 43.13478 | 17.30162 | 34065 ft | 468 kts | 318° |
| 2026-05-07 11:17 | 43.54197 | 16.86661 | 34140 ft | 473 kts | 317° |
| 2026-05-07 11:18 | 43.94737 | 16.42641 | 34076 ft | 483 kts | 316° |
| 2026-05-07 11:18 | 44.15504 | 16.19775 | 34033 ft | 472 kts | 316° |
| 2026-05-07 11:19 | 44.35976 | 15.97030 | 34050 ft | 469 kts | 315° |
| 2026-05-07 11:19 | 44.56612 | 15.73884 | 34019 ft | 481 kts | 314° |
| 2026-05-07 11:20 | 44.77580 | 15.50155 | 34006 ft | 486 kts | 314° |
| 2026-05-07 11:20 | 44.88045 | 15.38224 | 35002 ft | 486 kts | 314° |
| 2026-05-07 11:20 | 44.98610 | 15.26115 | 35759 ft | 489 kts | 314° |
| 2026-05-07 11:21 | 45.09094 | 15.14052 | 36047 ft | 484 kts | 314° |
| 2026-05-07 11:21 | 45.19486 | 15.02029 | 36021 ft | 479 kts | 314° |
| 2026-05-07 11:21 | 45.39644 | 14.78533 | 36095 ft | 472 kts | 313° |
| 2026-05-07 11:22 | 45.60218 | 14.54328 | 36101 ft | 483 kts | 314° |
| 2026-05-07 11:22 | 45.81081 | 14.29536 | 36021 ft | 490 kts | 314° |
| 2026-05-07 11:23 | 46.01593 | 14.04928 | 35968 ft | 472 kts | 313° |
| 2026-05-07 11:23 | 46.21868 | 13.80333 | 36078 ft | 484 kts | 314° |
| 2026-05-07 11:24 | 46.32263 | 13.67641 | 35972 ft | 494 kts | 314° |
| 2026-05-07 11:24 | 46.42674 | 13.54862 | 35914 ft | 487 kts | 314° |
| 2026-05-07 11:24 | 46.52841 | 13.42313 | 35980 ft | 476 kts | 313° |
| 2026-05-07 11:24 | 46.62717 | 13.29455 | 35970 ft | 478 kts | 310° |
| 2026-05-07 11:25 | 46.82226 | 13.02276 | 36051 ft | 490 kts | 311° |
| 2026-05-07 11:25 | 47.01822 | 12.74930 | 36014 ft | 478 kts | 311° |
| 2026-05-07 11:26 | 47.16449 | 12.54302 | 36025 ft | 480 kts | 311° |
| 2026-05-07 11:26 | 47.21303 | 12.47432 | 36056 ft | 486 kts | 311° |
| 2026-05-07 11:27 | 47.26181 | 12.40500 | 36007 ft | 489 kts | 311° |
| 2026-05-07 11:27 | 47.31027 | 12.33602 | 36005 ft | 480 kts | 311° |
| 2026-05-07 11:28 | 47.35819 | 12.26757 | 36019 ft | 479 kts | 311° |
| 2026-05-07 11:28 | 47.40610 | 12.19891 | 36016 ft | 481 kts | 311° |
| 2026-05-07 11:29 | 47.45406 | 12.13003 | 36017 ft | 481 kts | 311° |
| 2026-05-07 11:29 | 47.50207 | 12.06090 | 36011 ft | 483 kts | 311° |
| 2026-05-07 11:30 | 47.54946 | 11.99063 | 36014 ft | 481 kts | 307° |
| 2026-05-07 11:30 | 47.59342 | 11.91594 | 36013 ft | 481 kts | 306° |
| 2026-05-07 11:31 | 47.63691 | 11.84047 | 36017 ft | 482 kts | 306° |
| 2026-05-07 11:31 | 47.68054 | 11.76502 | 36021 ft | 482 kts | 307° |
| 2026-05-07 11:32 | 47.74609 | 11.65195 | 36009 ft | 480 kts | 307° |
| 2026-05-07 11:33 | 47.78954 | 11.57682 | 36009 ft | 480 kts | 307° |
| 2026-05-07 11:33 | 47.83298 | 11.50150 | 36015 ft | 479 kts | 307° |
| 2026-05-07 11:34 | 47.87629 | 11.42617 | 36036 ft | 479 kts | 307° |
| 2026-05-07 11:34 | 47.91960 | 11.35060 | 36024 ft | 479 kts | 307° |
| 2026-05-07 11:35 | 47.96258 | 11.27539 | 36021 ft | 480 kts | 307° |
| 2026-05-07 11:35 | 48.00583 | 11.19952 | 36025 ft | 480 kts | 307° |
| 2026-05-07 11:36 | 48.04906 | 11.12346 | 36018 ft | 481 kts | 307° |
| 2026-05-07 11:36 | 48.09227 | 11.04723 | 36026 ft | 480 kts | 307° |
| 2026-05-07 11:37 | 48.13539 | 10.97091 | 36023 ft | 480 kts | 307° |
| 2026-05-07 11:37 | 48.17849 | 10.89444 | 36017 ft | 480 kts | 307° |
| 2026-05-07 11:38 | 48.22148 | 10.81796 | 36025 ft | 480 kts | 307° |
| 2026-05-07 11:38 | 48.26444 | 10.74128 | 36034 ft | 480 kts | 307° |
| 2026-05-07 11:39 | 48.30740 | 10.66439 | 36011 ft | 480 kts | 307° |
| 2026-05-07 11:39 | 48.35018 | 10.58761 | 36024 ft | 479 kts | 307° |
| 2026-05-07 11:40 | 48.38811 | 10.51934 | 36026 ft | 478 kts | 307° |
| 2026-05-07 11:40 | 48.43067 | 10.44252 | 36030 ft | 477 kts | 307° |
| 2026-05-07 11:41 | 48.47319 | 10.36557 | 36040 ft | 477 kts | 307° |
| 2026-05-07 11:41 | 48.51560 | 10.28860 | 36033 ft | 477 kts | 307° |
| 2026-05-07 11:42 | 48.55791 | 10.21157 | 36028 ft | 476 kts | 307° |
| 2026-05-07 11:42 | 48.60013 | 10.13449 | 36031 ft | 476 kts | 307° |
| 2026-05-07 11:43 | 48.64228 | 10.05730 | 36034 ft | 476 kts | 307° |
| 2026-05-07 11:43 | 48.68443 | 9.97990 | 36033 ft | 477 kts | 307° |
| 2026-05-07 11:44 | 48.72674 | 9.90256 | 36020 ft | 477 kts | 309° |
| 2026-05-07 11:44 | 48.77227 | 9.82916 | 36026 ft | 478 kts | 312° |
| 2026-05-07 11:45 | 48.81822 | 9.75730 | 36029 ft | 478 kts | 312° |
| 2026-05-07 11:45 | 48.86540 | 9.68537 | 36038 ft | 479 kts | 317° |
| 2026-05-07 11:46 | 48.91952 | 9.62709 | 36046 ft | 482 kts | 328° |
| 2026-05-07 11:46 | 48.97781 | 9.57641 | 36043 ft | 482 kts | 328° |
| 2026-05-07 11:47 | 49.03612 | 9.52573 | 36040 ft | 482 kts | 328° |
| 2026-05-07 11:47 | 49.09418 | 9.47456 | 36038 ft | 482 kts | 328° |
| 2026-05-07 11:48 | 49.15208 | 9.42307 | 36046 ft | 482 kts | 328° |
| 2026-05-07 11:48 | 49.20999 | 9.37137 | 36031 ft | 482 kts | 328° |
| 2026-05-07 11:49 | 49.26780 | 9.31961 | 36038 ft | 482 kts | 328° |
| 2026-05-07 11:49 | 49.57494 | 9.04249 | 36023 ft | 480 kts | 328° |
| 2026-05-07 11:50 | 49.64001 | 8.98323 | 36020 ft | 481 kts | 328° |
| 2026-05-07 11:50 | 49.66903 | 8.95673 | 35299 ft | 490 kts | 328° |
| 2026-05-07 11:50 | 49.69819 | 8.93006 | 34511 ft | 480 kts | 328° |
| 2026-05-07 11:50 | 49.72653 | 8.90414 | 33590 ft | 466 kts | 328° |
| 2026-05-07 11:51 | 49.75402 | 8.87897 | 32640 ft | 453 kts | 328° |
| 2026-05-07 11:51 | 49.78090 | 8.85432 | 31740 ft | 450 kts | 328° |
| 2026-05-07 11:51 | 49.80797 | 8.82944 | 30829 ft | 457 kts | 328° |
| 2026-05-07 11:51 | 49.83553 | 8.80406 | 30193 ft | 465 kts | 328° |
| 2026-05-07 11:52 | 49.86348 | 8.77830 | 29408 ft | 467 kts | 328° |
| 2026-05-07 11:52 | 49.89124 | 8.75268 | 28677 ft | 462 kts | 328° |
| 2026-05-07 11:52 | 49.91862 | 8.72741 | 28018 ft | 455 kts | 328° |
| 2026-05-07 11:52 | 49.94558 | 8.70247 | 27369 ft | 449 kts | 328° |
| 2026-05-07 11:53 | 49.96331 | 8.68606 | 26938 ft | 445 kts | 328° |
| 2026-05-07 11:53 | 49.98970 | 8.66160 | 26298 ft | 440 kts | 328° |
| 2026-05-07 11:53 | 50.01587 | 8.63732 | 25674 ft | 436 kts | 328° |
| 2026-05-07 11:53 | 50.04180 | 8.61321 | 25051 ft | 432 kts | 328° |
| 2026-05-07 11:54 | 50.06745 | 8.58935 | 24448 ft | 428 kts | 328° |
| 2026-05-07 11:54 | 50.09287 | 8.56567 | 23848 ft | 424 kts | 328° |
| 2026-05-07 11:54 | 50.11811 | 8.54211 | 23199 ft | 421 kts | 328° |
| 2026-05-07 11:54 | 50.14312 | 8.51875 | 22542 ft | 417 kts | 328° |
| 2026-05-07 11:55 | 50.16789 | 8.49558 | 21946 ft | 413 kts | 328° |
| 2026-05-07 11:55 | 50.19238 | 8.47266 | 21363 ft | 409 kts | 328° |
| 2026-05-07 11:55 | 50.21664 | 8.44992 | 20800 ft | 404 kts | 328° |
| 2026-05-07 11:55 | 50.24061 | 8.42743 | 20246 ft | 401 kts | 328° |
| 2026-05-07 11:56 | 50.26442 | 8.40504 | 19692 ft | 398 kts | 328° |
| 2026-05-07 11:56 | 50.28808 | 8.38279 | 19141 ft | 395 kts | 328° |
| 2026-05-07 11:56 | 50.31153 | 8.36070 | 18596 ft | 393 kts | 328° |
| 2026-05-07 11:56 | 50.33488 | 8.33868 | 17996 ft | 390 kts | 328° |
| 2026-05-07 11:57 | 50.35802 | 8.31683 | 17403 ft | 387 kts | 329° |
| 2026-05-07 11:57 | 50.38098 | 8.29513 | 16835 ft | 383 kts | 329° |
| 2026-05-07 11:57 | 50.40366 | 8.27367 | 16284 ft | 379 kts | 328° |
| 2026-05-07 11:57 | 50.42615 | 8.25236 | 15751 ft | 376 kts | 328° |
| 2026-05-07 11:58 | 50.44838 | 8.23128 | 15214 ft | 372 kts | 328° |
| 2026-05-07 11:58 | 50.47045 | 8.21033 | 14701 ft | 369 kts | 328° |
| 2026-05-07 11:58 | 50.49235 | 8.18952 | 14145 ft | 366 kts | 328° |
| 2026-05-07 11:58 | 50.51406 | 8.16886 | 13611 ft | 364 kts | 328° |
| 2026-05-07 11:59 | 50.53556 | 8.14837 | 13032 ft | 360 kts | 328° |
| 2026-05-07 11:59 | 50.55690 | 8.12801 | 12511 ft | 356 kts | 328° |
| 2026-05-07 11:59 | 50.57708 | 8.10689 | 12131 ft | 337 kts | 318° |
| 2026-05-07 11:59 | 50.59077 | 8.07941 | 11913 ft | 305 kts | 299° |
| 2026-05-07 12:00 | 50.59907 | 8.05021 | 11505 ft | 282 kts | 290° |
| 2026-05-07 12:00 | 50.60467 | 8.02134 | 10850 ft | 273 kts | 286° |
| 2026-05-07 12:00 | 50.60924 | 7.99276 | 10428 ft | 270 kts | 285° |
| 2026-05-07 12:00 | 50.61374 | 7.96357 | 10263 ft | 276 kts | 284° |
| 2026-05-07 12:01 | 50.61824 | 7.93426 | 10072 ft | 277 kts | 284° |
| 2026-05-07 12:01 | 50.62280 | 7.90462 | 9848 ft | 280 kts | 284° |
| 2026-05-07 12:01 | 50.62741 | 7.87494 | 9448 ft | 274 kts | 284° |
| 2026-05-07 12:01 | 50.63185 | 7.84641 | 8754 ft | 264 kts | 285° |
| 2026-05-07 12:02 | 50.63619 | 7.81865 | 8041 ft | 258 kts | 285° |
| 2026-05-07 12:02 | 50.64044 | 7.79150 | 7746 ft | 252 kts | 285° |
| 2026-05-07 12:02 | 50.64458 | 7.76516 | 7422 ft | 249 kts | 285° |
| 2026-05-07 12:02 | 50.64871 | 7.73888 | 7140 ft | 247 kts | 285° |
| 2026-05-07 12:03 | 50.65286 | 7.71240 | 6868 ft | 250 kts | 285° |
| 2026-05-07 12:03 | 50.65707 | 7.68558 | 6595 ft | 254 kts | 286° |
| 2026-05-07 12:03 | 50.66130 | 7.65849 | 6299 ft | 254 kts | 286° |
| 2026-05-07 12:03 | 50.66547 | 7.63178 | 5999 ft | 249 kts | 285° |
| 2026-05-07 12:04 | 50.66956 | 7.60561 | 5712 ft | 243 kts | 285° |
| 2026-05-07 12:04 | 50.67355 | 7.57995 | 5443 ft | 239 kts | 285° |
| 2026-05-07 12:04 | 50.67753 | 7.55440 | 5190 ft | 242 kts | 285° |
| 2026-05-07 12:04 | 50.68161 | 7.52815 | 4937 ft | 249 kts | 286° |
| 2026-05-07 12:05 | 50.68573 | 7.50164 | 4645 ft | 250 kts | 286° |
| 2026-05-07 12:05 | 50.68984 | 7.47511 | 4421 ft | 245 kts | 286° |
| 2026-05-07 12:05 | 50.69377 | 7.44961 | 4317 ft | 234 kts | 286° |
| 2026-05-07 12:05 | 50.69752 | 7.42527 | 4187 ft | 222 kts | 285° |
| 2026-05-07 12:06 | 50.70111 | 7.40187 | 4119 ft | 221 kts | 285° |
| 2026-05-07 12:06 | 50.70661 | 7.37925 | 3920 ft | 222 kts | 310° |
| 2026-05-07 12:06 | 50.71771 | 7.36356 | 3790 ft | 213 kts | 321° |
| 2026-05-07 12:06 | 50.72878 | 7.34812 | 3527 ft | 209 kts | 319° |
| 2026-05-07 12:07 | 50.73937 | 7.33287 | 3266 ft | 202 kts | 318° |
| 2026-05-07 12:07 | 50.74955 | 7.31817 | 3094 ft | 195 kts | 318° |
| 2026-05-07 12:07 | 50.75956 | 7.30372 | 2907 ft | 197 kts | 319° |
| 2026-05-07 12:07 | 50.76943 | 7.28951 | 2633 ft | 185 kts | 319° |
| 2026-05-07 12:08 | 50.77837 | 7.27662 | 2391 ft | 170 kts | 319° |
| 2026-05-07 12:08 | 50.78670 | 7.26458 | 2154 ft | 155 kts | 319° |
| 2026-05-07 12:08 | 50.79428 | 7.25363 | 1992 ft | 142 kts | 319° |
| 2026-05-07 12:08 | 50.80132 | 7.24346 | 1761 ft | 131 kts | 319° |
| 2026-05-07 12:09 | 50.80796 | 7.23386 | 1616 ft | 130 kts | 319° |
| 2026-05-07 12:09 | 50.81473 | 7.22411 | 1422 ft | 131 kts | 319° |
| 2026-05-07 12:09 | 50.82144 | 7.21427 | 1272 ft | 131 kts | 317° |
| 2026-05-07 12:09 | 50.82822 | 7.20462 | 1089 ft | 131 kts | 319° |
| 2026-05-07 12:10 | 50.83498 | 7.19475 | 871 ft | 133 kts | 319° |
| 2026-05-07 12:10 | 50.84180 | 7.18494 | 722 ft | 132 kts | 318° |
| 2026-05-07 12:10 | 50.84861 | 7.17522 | 521 ft | 130 kts | 319° |
| 2026-05-07 12:10 | 50.85503 | 7.16587 | 369 ft | 121 kts | 318° |
| 2026-05-07 12:11 | 50.86106 | 7.15724 | 297 ft | 106 kts | 316° |
| 2026-05-07 12:11 | 50.86529 | 7.15109 | 269 ft | 62 kts | 317° |
| 2026-05-07 12:11 | 50.86782 | 7.14738 | 262 ft | 25 kts | 311° |
| 2026-05-07 12:11 | 50.86865 | 7.14502 | 260 ft | 25 kts | 288° |
| 2026-05-07 12:12 | 50.86897 | 7.14234 | 260 ft | 25 kts | 279° |
| 2026-05-07 12:12 | 50.86909 | 7.14134 | 256 ft | 9 kts | 281° |
| 2026-05-07 12:12 | 50.86945 | 7.14050 | 255 ft | 10 kts | 310° |
| 2026-05-07 12:12 | 50.87003 | 7.13962 | 253 ft | 13 kts | 319° |
| 2026-05-07 12:13 | 50.87073 | 7.13862 | 250 ft | 15 kts | 318° |
| 2026-05-07 12:13 | 50.87140 | 7.13764 | 248 ft | 14 kts | 317° |
| 2026-05-07 12:13 | 50.87215 | 7.13655 | 245 ft | 15 kts | 318° |
| 2026-05-07 12:13 | 50.87295 | 7.13539 | 243 ft | 17 kts | 317° |
| 2026-05-07 12:14 | 50.87351 | 7.13411 | 241 ft | 13 kts | 280° |
| 2026-05-07 12:14 | 50.87359 | 7.13317 | 238 ft | 6 kts | 259° |
| 2026-05-07 12:14 | 50.87324 | 7.13275 | 238 ft | 7 kts | 220° |
| 2026-05-07 12:14 | 50.87292 | 7.13219 | 238 ft | 5 kts | 227° |
| 2026-05-07 12:15 | 50.87284 | 7.13207 | 238 ft | 1 kts | 227° |
| 2026-05-07 12:15 | 50.87277 | 7.13194 | 238 ft | 2 kts | 227° |
| 2026-05-07 12:15 | 50.87276 | 7.13192 | 238 ft | 0 kts | 227° |